sensor_id;sensor_type;location;lat;lon;timestamp;P1;durP1;ratioP1;P2;durP2;ratioP2
27365;SDS011;14837;57.148;-2.144;2022-07-01T00:00:42;2.45;;;1.50;;
27365;SDS011;14837;57.148;-2.144;2022-07-01T00:03:22;11.38;;;1.40;;
27365;SDS011;14837;57.148;-2.144;2022-07-01T00:05:49;1.73;;;1.27;;
27365;SDS011;14837;57.148;-2.144;2022-07-01T00:08:16;1.52;;;1.27;;
27365;SDS011;14837;57.148;-2.144;2022-07-01T00:10:43;3.25;;;1.48;;
27365;SDS011;14837;57.148;-2.144;2022-07-01T00:13:10;1.98;;;1.10;;
27365;SDS011;14837;57.148;-2.144;2022-07-01T00:15:37;1.92;;;1.50;;
27365;SDS011;14837;57.148;-2.144;2022-07-01T00:18:04;3.20;;;1.60;;
27365;SDS011;14837;57.148;-2.144;2022-07-01T00:20:31;2.83;;;1.77;;
27365;SDS011;14837;57.148;-2.144;2022-07-01T00:22:58;3.58;;;1.77;;
27365;SDS011;14837;57.148;-2.144;2022-07-01T00:25:25;1.63;;;1.30;;
27365;SDS011;14837;57.148;-2.144;2022-07-01T00:27:52;4.38;;;1.75;;
27365;SDS011;14837;57.148;-2.144;2022-07-01T00:30:19;4.20;;;1.95;;
27365;SDS011;14837;57.148;-2.144;2022-07-01T00:32:46;1.77;;;1.55;;
27365;SDS011;14837;57.148;-2.144;2022-07-01T00:35:13;2.50;;;1.83;;
27365;SDS011;14837;57.148;-2.144;2022-07-01T00:37:40;3.50;;;1.55;;
27365;SDS011;14837;57.148;-2.144;2022-07-01T00:40:07;2.78;;;1.50;;
27365;SDS011;14837;57.148;-2.144;2022-07-01T00:42:37;2.00;;;1.63;;
27365;SDS011;14837;57.148;-2.144;2022-07-01T00:45:05;2.20;;;1.25;;
27365;SDS011;14837;57.148;-2.144;2022-07-01T00:47:32;2.92;;;1.75;;
27365;SDS011;14837;57.148;-2.144;2022-07-01T00:49:59;5.68;;;2.50;;
27365;SDS011;14837;57.148;-2.144;2022-07-01T00:52:26;3.97;;;1.80;;
27365;SDS011;14837;57.148;-2.144;2022-07-01T00:54:55;2.10;;;1.75;;
27365;SDS011;14837;57.148;-2.144;2022-07-01T00:57:23;1.73;;;1.27;;
27365;SDS011;14837;57.148;-2.144;2022-07-01T00:59:49;3.58;;;1.42;;
27365;SDS011;14837;57.148;-2.144;2022-07-01T01:02:17;2.13;;;1.40;;
27365;SDS011;14837;57.148;-2.144;2022-07-01T01:04:44;3.55;;;1.67;;
27365;SDS011;14837;57.148;-2.144;2022-07-01T01:07:10;2.10;;;1.38;;
27365;SDS011;14837;57.148;-2.144;2022-07-01T01:09:37;3.53;;;1.55;;
27365;SDS011;14837;57.148;-2.144;2022-07-01T01:12:04;2.95;;;1.27;;
27365;SDS011;14837;57.148;-2.144;2022-07-01T01:14:42;1.63;;;1.27;;
27365;SDS011;14837;57.148;-2.144;2022-07-01T01:17:09;2.00;;;1.30;;
27365;SDS011;14837;57.148;-2.144;2022-07-01T01:19:36;1.70;;;1.13;;
27365;SDS011;14837;57.148;-2.144;2022-07-01T01:22:03;1.20;;;1.10;;
27365;SDS011;14837;57.148;-2.144;2022-07-01T01:24:30;2.20;;;1.40;;
27365;SDS011;14837;57.148;-2.144;2022-07-01T01:26:56;3.97;;;2.03;;
27365;SDS011;14837;57.148;-2.144;2022-07-01T01:29:23;2.97;;;1.50;;
27365;SDS011;14837;57.148;-2.144;2022-07-01T01:31:50;2.97;;;1.10;;
27365;SDS011;14837;57.148;-2.144;2022-07-01T01:34:16;3.03;;;1.63;;
27365;SDS011;14837;57.148;-2.144;2022-07-01T01:36:43;4.10;;;1.40;;
27365;SDS011;14837;57.148;-2.144;2022-07-01T01:39:10;4.05;;;1.35;;
27365;SDS011;14837;57.148;-2.144;2022-07-01T01:41:43;1.77;;;1.42;;
27365;SDS011;14837;57.148;-2.144;2022-07-01T01:44:10;2.47;;;1.65;;
27365;SDS011;14837;57.148;-2.144;2022-07-01T01:46:37;5.18;;;1.77;;
27365;SDS011;14837;57.148;-2.144;2022-07-01T01:49:05;1.60;;;1.23;;
27365;SDS011;14837;57.148;-2.144;2022-07-01T01:51:32;1.40;;;1.23;;
27365;SDS011;14837;57.148;-2.144;2022-07-01T01:53:59;5.72;;;1.40;;
27365;SDS011;14837;57.148;-2.144;2022-07-01T01:56:26;2.55;;;1.40;;
27365;SDS011;14837;57.148;-2.144;2022-07-01T01:58:53;1.75;;;1.42;;
27365;SDS011;14837;57.148;-2.144;2022-07-01T02:01:19;2.15;;;1.23;;
27365;SDS011;14837;57.148;-2.144;2022-07-01T02:03:47;2.00;;;1.50;;
27365;SDS011;14837;57.148;-2.144;2022-07-01T02:06:15;3.28;;;1.20;;
27365;SDS011;14837;57.148;-2.144;2022-07-01T02:08:42;2.95;;;1.35;;
27365;SDS011;14837;57.148;-2.144;2022-07-01T02:11:09;1.73;;;1.33;;
27365;SDS011;14837;57.148;-2.144;2022-07-01T02:13:36;2.22;;;1.10;;
27365;SDS011;14837;57.148;-2.144;2022-07-01T02:16:03;1.80;;;1.10;;
27365;SDS011;14837;57.148;-2.144;2022-07-01T02:18:30;1.67;;;1.40;;
27365;SDS011;14837;57.148;-2.144;2022-07-01T02:20:58;3.05;;;2.08;;
27365;SDS011;14837;57.148;-2.144;2022-07-01T02:23:25;1.80;;;1.35;;
27365;SDS011;14837;57.148;-2.144;2022-07-01T02:25:52;2.17;;;1.23;;
27365;SDS011;14837;57.148;-2.144;2022-07-01T02:28:18;2.65;;;1.70;;
27365;SDS011;14837;57.148;-2.144;2022-07-01T02:30:45;4.40;;;1.27;;
27365;SDS011;14837;57.148;-2.144;2022-07-01T02:33:12;1.35;;;1.10;;
27365;SDS011;14837;57.148;-2.144;2022-07-01T02:35:39;2.20;;;1.58;;
27365;SDS011;14837;57.148;-2.144;2022-07-01T02:38:11;1.80;;;1.50;;
27365;SDS011;14837;57.148;-2.144;2022-07-01T02:40:37;3.65;;;1.77;;
27365;SDS011;14837;57.148;-2.144;2022-07-01T02:43:06;1.83;;;1.40;;
27365;SDS011;14837;57.148;-2.144;2022-07-01T02:45:33;2.30;;;1.55;;
27365;SDS011;14837;57.148;-2.144;2022-07-01T02:48:00;3.72;;;1.70;;
27365;SDS011;14837;57.148;-2.144;2022-07-01T02:50:30;2.08;;;1.80;;
27365;SDS011;14837;57.148;-2.144;2022-07-01T02:52:57;2.38;;;1.60;;
27365;SDS011;14837;57.148;-2.144;2022-07-01T02:55:24;3.05;;;2.42;;
27365;SDS011;14837;57.148;-2.144;2022-07-01T02:57:51;4.05;;;2.17;;
27365;SDS011;14837;57.148;-2.144;2022-07-01T03:00:19;4.57;;;2.33;;
27365;SDS011;14837;57.148;-2.144;2022-07-01T03:02:46;2.83;;;2.10;;
27365;SDS011;14837;57.148;-2.144;2022-07-01T03:05:12;3.25;;;2.40;;
27365;SDS011;14837;57.148;-2.144;2022-07-01T03:07:39;3.50;;;2.17;;
27365;SDS011;14837;57.148;-2.144;2022-07-01T03:10:06;5.40;;;2.33;;
27365;SDS011;14837;57.148;-2.144;2022-07-01T03:12:34;3.15;;;2.20;;
27365;SDS011;14837;57.148;-2.144;2022-07-01T03:15:09;2.55;;;1.73;;
27365;SDS011;14837;57.148;-2.144;2022-07-01T03:17:37;2.50;;;2.00;;
27365;SDS011;14837;57.148;-2.144;2022-07-01T03:20:07;4.22;;;1.77;;
27365;SDS011;14837;57.148;-2.144;2022-07-01T03:22:35;4.13;;;2.20;;
27365;SDS011;14837;57.148;-2.144;2022-07-01T03:25:02;3.20;;;2.20;;
27365;SDS011;14837;57.148;-2.144;2022-07-01T03:27:29;3.40;;;1.60;;
27365;SDS011;14837;57.148;-2.144;2022-07-01T03:29:56;2.55;;;1.70;;
27365;SDS011;14837;57.148;-2.144;2022-07-01T03:32:23;2.10;;;1.77;;
27365;SDS011;14837;57.148;-2.144;2022-07-01T03:34:50;2.22;;;1.60;;
27365;SDS011;14837;57.148;-2.144;2022-07-01T03:37:17;2.78;;;1.77;;
27365;SDS011;14837;57.148;-2.144;2022-07-01T03:39:44;2.13;;;1.77;;
27365;SDS011;14837;57.148;-2.144;2022-07-01T03:42:11;3.95;;;1.95;;
27365;SDS011;14837;57.148;-2.144;2022-07-01T03:44:38;1.92;;;1.58;;
27365;SDS011;14837;57.148;-2.144;2022-07-01T03:47:05;2.22;;;2.03;;
27365;SDS011;14837;57.148;-2.144;2022-07-01T03:49:33;2.65;;;1.70;;
27365;SDS011;14837;57.148;-2.144;2022-07-01T03:51:59;3.45;;;1.95;;
27365;SDS011;14837;57.148;-2.144;2022-07-01T03:54:26;2.53;;;1.95;;
27365;SDS011;14837;57.148;-2.144;2022-07-01T03:59:22;4.43;;;2.10;;
27365;SDS011;14837;57.148;-2.144;2022-07-01T04:01:49;3.75;;;2.33;;
27365;SDS011;14837;57.148;-2.144;2022-07-01T04:04:18;4.05;;;2.67;;
27365;SDS011;14837;57.148;-2.144;2022-07-01T04:06:45;4.57;;;2.40;;
27365;SDS011;14837;57.148;-2.144;2022-07-01T04:09:13;3.17;;;2.40;;
27365;SDS011;14837;57.148;-2.144;2022-07-01T04:11:41;5.03;;;3.25;;
27365;SDS011;14837;57.148;-2.144;2022-07-01T04:14:08;2.70;;;2.50;;
27365;SDS011;14837;57.148;-2.144;2022-07-01T04:16:35;3.72;;;2.83;;
27365;SDS011;14837;57.148;-2.144;2022-07-01T04:19:02;5.10;;;3.00;;
27365;SDS011;14837;57.148;-2.144;2022-07-01T04:21:29;5.80;;;3.25;;
27365;SDS011;14837;57.148;-2.144;2022-07-01T04:24:14;6.22;;;3.08;;
27365;SDS011;14837;57.148;-2.144;2022-07-01T04:26:41;3.45;;;2.88;;
27365;SDS011;14837;57.148;-2.144;2022-07-01T04:29:08;6.45;;;3.75;;
27365;SDS011;14837;57.148;-2.144;2022-07-01T04:31:36;3.03;;;2.67;;
27365;SDS011;14837;57.148;-2.144;2022-07-01T04:34:04;6.68;;;3.13;;
27365;SDS011;14837;57.148;-2.144;2022-07-01T04:36:31;5.53;;;3.20;;
27365;SDS011;14837;57.148;-2.144;2022-07-01T04:38:58;2.78;;;2.38;;
27365;SDS011;14837;57.148;-2.144;2022-07-01T04:41:25;4.05;;;3.05;;
27365;SDS011;14837;57.148;-2.144;2022-07-01T04:44:10;3.90;;;3.20;;
27365;SDS011;14837;57.148;-2.144;2022-07-01T04:46:37;3.47;;;2.83;;
27365;SDS011;14837;57.148;-2.144;2022-07-01T04:49:04;5.38;;;3.50;;
27365;SDS011;14837;57.148;-2.144;2022-07-01T04:51:31;3.95;;;2.78;;
27365;SDS011;14837;57.148;-2.144;2022-07-01T04:54:01;6.18;;;3.45;;
27365;SDS011;14837;57.148;-2.144;2022-07-01T04:56:28;3.85;;;3.53;;
27365;SDS011;14837;57.148;-2.144;2022-07-01T04:58:55;4.68;;;2.80;;
27365;SDS011;14837;57.148;-2.144;2022-07-01T05:01:22;5.82;;;3.20;;
27365;SDS011;14837;57.148;-2.144;2022-07-01T05:03:49;5.60;;;2.97;;
27365;SDS011;14837;57.148;-2.144;2022-07-01T05:06:16;3.53;;;3.08;;
27365;SDS011;14837;57.148;-2.144;2022-07-01T05:08:43;5.60;;;3.28;;
27365;SDS011;14837;57.148;-2.144;2022-07-01T05:11:10;3.60;;;2.70;;
27365;SDS011;14837;57.148;-2.144;2022-07-01T05:19:01;5.43;;;3.00;;
27365;SDS011;14837;57.148;-2.144;2022-07-01T05:21:45;5.45;;;3.33;;
27365;SDS011;14837;57.148;-2.144;2022-07-01T05:27:17;5.93;;;3.95;;
27365;SDS011;14837;57.148;-2.144;2022-07-01T05:29:44;4.57;;;3.65;;
27365;SDS011;14837;57.148;-2.144;2022-07-01T05:32:11;5.78;;;4.38;;
27365;SDS011;14837;57.148;-2.144;2022-07-01T05:34:37;4.53;;;4.13;;
27365;SDS011;14837;57.148;-2.144;2022-07-01T05:37:07;8.93;;;3.78;;
27365;SDS011;14837;57.148;-2.144;2022-07-01T05:39:34;6.03;;;3.08;;
27365;SDS011;14837;57.148;-2.144;2022-07-01T05:42:08;5.35;;;2.95;;
27365;SDS011;14837;57.148;-2.144;2022-07-01T05:44:35;5.63;;;3.45;;
27365;SDS011;14837;57.148;-2.144;2022-07-01T05:47:01;4.68;;;3.22;;
27365;SDS011;14837;57.148;-2.144;2022-07-01T05:49:28;7.00;;;3.90;;
27365;SDS011;14837;57.148;-2.144;2022-07-01T05:51:55;4.35;;;2.60;;
27365;SDS011;14837;57.148;-2.144;2022-07-01T05:54:21;4.60;;;2.97;;
27365;SDS011;14837;57.148;-2.144;2022-07-01T05:56:48;3.80;;;3.35;;
27365;SDS011;14837;57.148;-2.144;2022-07-01T05:59:15;4.20;;;3.03;;
27365;SDS011;14837;57.148;-2.144;2022-07-01T06:01:41;4.43;;;2.88;;
27365;SDS011;14837;57.148;-2.144;2022-07-01T06:04:08;7.22;;;3.10;;
27365;SDS011;14837;57.148;-2.144;2022-07-01T06:06:35;4.93;;;2.63;;
27365;SDS011;14837;57.148;-2.144;2022-07-01T06:09:01;2.92;;;2.53;;
27365;SDS011;14837;57.148;-2.144;2022-07-01T06:11:28;3.10;;;2.60;;
27365;SDS011;14837;57.148;-2.144;2022-07-01T06:13:54;3.40;;;2.67;;
27365;SDS011;14837;57.148;-2.144;2022-07-01T06:16:21;3.33;;;2.97;;
27365;SDS011;14837;57.148;-2.144;2022-07-01T06:18:53;2.95;;;2.20;;
27365;SDS011;14837;57.148;-2.144;2022-07-01T06:21:19;5.97;;;2.63;;
27365;SDS011;14837;57.148;-2.144;2022-07-01T06:23:46;4.35;;;2.65;;
27365;SDS011;14837;57.148;-2.144;2022-07-01T06:26:12;2.45;;;2.10;;
27365;SDS011;14837;57.148;-2.144;2022-07-01T06:28:40;3.22;;;2.10;;
27365;SDS011;14837;57.148;-2.144;2022-07-01T06:31:06;3.88;;;2.13;;
27365;SDS011;14837;57.148;-2.144;2022-07-01T06:33:34;4.15;;;2.20;;
27365;SDS011;14837;57.148;-2.144;2022-07-01T06:36:00;3.95;;;2.63;;
27365;SDS011;14837;57.148;-2.144;2022-07-01T06:38:28;4.43;;;2.15;;
27365;SDS011;14837;57.148;-2.144;2022-07-01T06:40:54;5.68;;;2.90;;
27365;SDS011;14837;57.148;-2.144;2022-07-01T06:43:39;4.75;;;2.30;;
27365;SDS011;14837;57.148;-2.144;2022-07-01T06:46:06;3.03;;;2.33;;
27365;SDS011;14837;57.148;-2.144;2022-07-01T06:48:33;5.35;;;2.72;;
27365;SDS011;14837;57.148;-2.144;2022-07-01T06:50:59;9.23;;;3.33;;
27365;SDS011;14837;57.148;-2.144;2022-07-01T06:53:26;4.78;;;2.80;;
27365;SDS011;14837;57.148;-2.144;2022-07-01T06:55:53;3.95;;;2.58;;
27365;SDS011;14837;57.148;-2.144;2022-07-01T06:58:19;3.35;;;2.08;;
27365;SDS011;14837;57.148;-2.144;2022-07-01T07:00:46;5.90;;;2.30;;
27365;SDS011;14837;57.148;-2.144;2022-07-01T07:03:13;3.15;;;2.13;;
27365;SDS011;14837;57.148;-2.144;2022-07-01T07:05:39;5.22;;;2.47;;
27365;SDS011;14837;57.148;-2.144;2022-07-01T07:08:06;4.35;;;2.33;;
27365;SDS011;14837;57.148;-2.144;2022-07-01T07:10:33;3.42;;;1.90;;
27365;SDS011;14837;57.148;-2.144;2022-07-01T07:12:59;3.30;;;2.28;;
27365;SDS011;14837;57.148;-2.144;2022-07-01T07:15:26;3.35;;;2.28;;
27365;SDS011;14837;57.148;-2.144;2022-07-01T07:17:53;3.35;;;1.90;;
27365;SDS011;14837;57.148;-2.144;2022-07-01T07:20:24;3.83;;;2.45;;
27365;SDS011;14837;57.148;-2.144;2022-07-01T07:22:50;3.70;;;2.40;;
27365;SDS011;14837;57.148;-2.144;2022-07-01T07:25:17;3.28;;;2.08;;
27365;SDS011;14837;57.148;-2.144;2022-07-01T07:27:43;5.97;;;2.47;;
27365;SDS011;14837;57.148;-2.144;2022-07-01T07:30:12;4.25;;;2.28;;
27365;SDS011;14837;57.148;-2.144;2022-07-01T07:32:39;8.43;;;2.40;;
27365;SDS011;14837;57.148;-2.144;2022-07-01T07:35:06;4.72;;;2.42;;
27365;SDS011;14837;57.148;-2.144;2022-07-01T07:37:33;4.05;;;2.13;;
27365;SDS011;14837;57.148;-2.144;2022-07-01T07:40:00;2.08;;;1.73;;
27365;SDS011;14837;57.148;-2.144;2022-07-01T07:42:30;4.93;;;2.47;;
27365;SDS011;14837;57.148;-2.144;2022-07-01T07:44:56;3.65;;;1.85;;
27365;SDS011;14837;57.148;-2.144;2022-07-01T07:47:23;4.72;;;1.88;;
27365;SDS011;14837;57.148;-2.144;2022-07-01T07:49:49;3.40;;;1.83;;
27365;SDS011;14837;57.148;-2.144;2022-07-01T07:52:16;3.08;;;1.55;;
27365;SDS011;14837;57.148;-2.144;2022-07-01T07:54:42;3.80;;;1.65;;
27365;SDS011;14837;57.148;-2.144;2022-07-01T07:57:09;5.03;;;1.98;;
27365;SDS011;14837;57.148;-2.144;2022-07-01T07:59:36;2.88;;;1.55;;
27365;SDS011;14837;57.148;-2.144;2022-07-01T08:02:02;6.07;;;1.48;;
27365;SDS011;14837;57.148;-2.144;2022-07-01T08:04:29;2.50;;;1.70;;
27365;SDS011;14837;57.148;-2.144;2022-07-01T08:06:55;3.00;;;1.65;;
27365;SDS011;14837;57.148;-2.144;2022-07-01T08:09:22;3.10;;;1.40;;
27365;SDS011;14837;57.148;-2.144;2022-07-01T08:11:49;1.83;;;1.13;;
27365;SDS011;14837;57.148;-2.144;2022-07-01T08:14:15;3.47;;;1.30;;
27365;SDS011;14837;57.148;-2.144;2022-07-01T08:16:48;3.28;;;1.30;;
27365;SDS011;14837;57.148;-2.144;2022-07-01T08:19:15;2.55;;;1.73;;
27365;SDS011;14837;57.148;-2.144;2022-07-01T08:21:41;2.08;;;1.10;;
27365;SDS011;14837;57.148;-2.144;2022-07-01T08:24:08;1.90;;;1.20;;
27365;SDS011;14837;57.148;-2.144;2022-07-01T08:26:34;3.38;;;1.33;;
27365;SDS011;14837;57.148;-2.144;2022-07-01T08:29:01;2.83;;;1.13;;
27365;SDS011;14837;57.148;-2.144;2022-07-01T08:31:28;2.55;;;1.33;;
27365;SDS011;14837;57.148;-2.144;2022-07-01T08:33:54;2.97;;;1.10;;
27365;SDS011;14837;57.148;-2.144;2022-07-01T08:36:21;2.47;;;1.50;;
27365;SDS011;14837;57.148;-2.144;2022-07-01T08:38:47;3.47;;;1.15;;
27365;SDS011;14837;57.148;-2.144;2022-07-01T08:41:16;2.45;;;0.90;;
27365;SDS011;14837;57.148;-2.144;2022-07-01T08:43:43;2.92;;;1.73;;
27365;SDS011;14837;57.148;-2.144;2022-07-01T08:46:11;2.72;;;1.20;;
27365;SDS011;14837;57.148;-2.144;2022-07-01T08:48:41;3.05;;;1.25;;
27365;SDS011;14837;57.148;-2.144;2022-07-01T08:51:08;4.28;;;1.30;;
27365;SDS011;14837;57.148;-2.144;2022-07-01T08:53:35;4.55;;;1.60;;
27365;SDS011;14837;57.148;-2.144;2022-07-01T08:56:02;5.25;;;1.42;;
27365;SDS011;14837;57.148;-2.144;2022-07-01T08:58:50;1.60;;;1.23;;
27365;SDS011;14837;57.148;-2.144;2022-07-01T09:01:18;2.35;;;1.05;;
27365;SDS011;14837;57.148;-2.144;2022-07-01T09:03:47;4.03;;;1.70;;
27365;SDS011;14837;57.148;-2.144;2022-07-01T09:06:26;1.60;;;1.00;;
27365;SDS011;14837;57.148;-2.144;2022-07-01T09:08:52;2.05;;;1.15;;
27365;SDS011;14837;57.148;-2.144;2022-07-01T09:11:23;2.63;;;1.15;;
27365;SDS011;14837;57.148;-2.144;2022-07-01T09:14:06;2.00;;;1.10;;
27365;SDS011;14837;57.148;-2.144;2022-07-01T09:16:43;3.00;;;1.25;;
27365;SDS011;14837;57.148;-2.144;2022-07-01T09:19:10;2.13;;;1.50;;
27365;SDS011;14837;57.148;-2.144;2022-07-01T09:21:37;2.00;;;1.13;;
27365;SDS011;14837;57.148;-2.144;2022-07-01T09:24:04;3.80;;;1.58;;
27365;SDS011;14837;57.148;-2.144;2022-07-01T09:26:31;2.00;;;1.17;;
27365;SDS011;14837;57.148;-2.144;2022-07-01T09:28:58;2.28;;;1.10;;
27365;SDS011;14837;57.148;-2.144;2022-07-01T09:31:35;1.80;;;1.23;;
27365;SDS011;14837;57.148;-2.144;2022-07-01T09:34:12;2.05;;;1.00;;
27365;SDS011;14837;57.148;-2.144;2022-07-01T09:36:39;3.47;;;1.33;;
27365;SDS011;14837;57.148;-2.144;2022-07-01T09:39:06;1.75;;;1.00;;
27365;SDS011;14837;57.148;-2.144;2022-07-01T09:41:53;1.90;;;1.02;;
27365;SDS011;14837;57.148;-2.144;2022-07-01T09:44:21;1.20;;;0.93;;
27365;SDS011;14837;57.148;-2.144;2022-07-01T09:46:56;2.47;;;1.27;;
27365;SDS011;14837;57.148;-2.144;2022-07-01T09:49:23;1.95;;;1.05;;
27365;SDS011;14837;57.148;-2.144;2022-07-01T09:51:50;1.67;;;1.00;;
27365;SDS011;14837;57.148;-2.144;2022-07-01T09:54:19;1.35;;;0.82;;
27365;SDS011;14837;57.148;-2.144;2022-07-01T09:56:45;1.83;;;1.23;;
27365;SDS011;14837;57.148;-2.144;2022-07-01T09:59:16;1.67;;;0.95;;
27365;SDS011;14837;57.148;-2.144;2022-07-01T10:01:42;2.05;;;1.00;;
27365;SDS011;14837;57.148;-2.144;2022-07-01T10:04:10;1.25;;;0.90;;
27365;SDS011;14837;57.148;-2.144;2022-07-01T10:14:29;2.90;;;1.40;;
27365;SDS011;14837;57.148;-2.144;2022-07-01T10:16:56;2.22;;;0.98;;
27365;SDS011;14837;57.148;-2.144;2022-07-01T10:19:24;1.85;;;0.90;;
27365;SDS011;14837;57.148;-2.144;2022-07-01T10:21:53;2.45;;;1.23;;
27365;SDS011;14837;57.148;-2.144;2022-07-01T10:24:24;2.10;;;1.20;;
27365;SDS011;14837;57.148;-2.144;2022-07-01T10:26:52;3.35;;;1.00;;
27365;SDS011;14837;57.148;-2.144;2022-07-01T10:29:29;1.40;;;1.02;;
27365;SDS011;14837;57.148;-2.144;2022-07-01T10:32:00;2.35;;;1.00;;
27365;SDS011;14837;57.148;-2.144;2022-07-01T10:34:34;1.95;;;1.40;;
27365;SDS011;14837;57.148;-2.144;2022-07-01T10:37:03;2.75;;;1.00;;
27365;SDS011;14837;57.148;-2.144;2022-07-01T10:39:30;3.58;;;1.60;;
27365;SDS011;14837;57.148;-2.144;2022-07-01T10:41:57;1.45;;;1.08;;
27365;SDS011;14837;57.148;-2.144;2022-07-01T10:45:18;2.50;;;1.00;;
27365;SDS011;14837;57.148;-2.144;2022-07-01T10:47:38;2.03;;;0.95;;
27365;SDS011;14837;57.148;-2.144;2022-07-01T10:52:32;2.78;;;0.85;;
27365;SDS011;14837;57.148;-2.144;2022-07-01T10:55:00;1.52;;;0.95;;
27365;SDS011;14837;57.148;-2.144;2022-07-01T10:57:28;2.63;;;1.02;;
27365;SDS011;14837;57.148;-2.144;2022-07-01T10:59:58;2.70;;;1.08;;
27365;SDS011;14837;57.148;-2.144;2022-07-01T11:02:42;2.33;;;0.68;;
27365;SDS011;14837;57.148;-2.144;2022-07-01T11:05:12;0.95;;;0.80;;
27365;SDS011;14837;57.148;-2.144;2022-07-01T11:07:40;1.38;;;0.80;;
27365;SDS011;14837;57.148;-2.144;2022-07-01T11:10:09;1.35;;;0.88;;
27365;SDS011;14837;57.148;-2.144;2022-07-01T11:12:40;1.27;;;0.75;;
27365;SDS011;14837;57.148;-2.144;2022-07-01T11:15:07;2.97;;;0.90;;
27365;SDS011;14837;57.148;-2.144;2022-07-01T11:17:34;2.92;;;1.00;;
27365;SDS011;14837;57.148;-2.144;2022-07-01T11:20:01;1.50;;;1.10;;
27365;SDS011;14837;57.148;-2.144;2022-07-01T11:22:30;2.70;;;1.20;;
27365;SDS011;14837;57.148;-2.144;2022-07-01T11:24:58;2.97;;;1.40;;
27365;SDS011;14837;57.148;-2.144;2022-07-01T11:27:25;3.83;;;1.17;;
27365;SDS011;14837;57.148;-2.144;2022-07-01T11:29:52;2.08;;;1.20;;
27365;SDS011;14837;57.148;-2.144;2022-07-01T11:32:26;3.13;;;1.20;;
27365;SDS011;14837;57.148;-2.144;2022-07-01T11:34:53;1.85;;;1.20;;
27365;SDS011;14837;57.148;-2.144;2022-07-01T11:37:20;2.08;;;1.17;;
27365;SDS011;14837;57.148;-2.144;2022-07-01T11:40:06;2.00;;;1.10;;
27365;SDS011;14837;57.148;-2.144;2022-07-01T11:42:33;1.58;;;0.85;;
27365;SDS011;14837;57.148;-2.144;2022-07-01T11:45:00;2.20;;;1.13;;
27365;SDS011;14837;57.148;-2.144;2022-07-01T11:47:27;1.65;;;1.00;;
27365;SDS011;14837;57.148;-2.144;2022-07-01T11:49:54;1.70;;;1.23;;
27365;SDS011;14837;57.148;-2.144;2022-07-01T11:52:21;2.72;;;1.20;;
27365;SDS011;14837;57.148;-2.144;2022-07-01T11:54:48;2.42;;;1.25;;
27365;SDS011;14837;57.148;-2.144;2022-07-01T11:57:16;3.35;;;0.98;;
27365;SDS011;14837;57.148;-2.144;2022-07-01T11:59:44;2.63;;;1.25;;
27365;SDS011;14837;57.148;-2.144;2022-07-01T12:02:11;0.90;;;0.80;;
27365;SDS011;14837;57.148;-2.144;2022-07-01T12:04:38;2.63;;;1.08;;
27365;SDS011;14837;57.148;-2.144;2022-07-01T12:07:05;2.83;;;1.05;;
27365;SDS011;14837;57.148;-2.144;2022-07-01T12:09:32;1.67;;;0.80;;
27365;SDS011;14837;57.148;-2.144;2022-07-01T12:11:59;2.85;;;1.20;;
27365;SDS011;14837;57.148;-2.144;2022-07-01T12:14:29;3.92;;;2.13;;
27365;SDS011;14837;57.148;-2.144;2022-07-01T12:16:58;3.28;;;1.13;;
27365;SDS011;14837;57.148;-2.144;2022-07-01T12:19:43;1.73;;;1.15;;
27365;SDS011;14837;57.148;-2.144;2022-07-01T12:22:11;6.43;;;1.58;;
27365;SDS011;14837;57.148;-2.144;2022-07-01T12:24:38;1.83;;;1.33;;
27365;SDS011;14837;57.148;-2.144;2022-07-01T12:27:06;3.15;;;1.20;;
27365;SDS011;14837;57.148;-2.144;2022-07-01T12:32:10;7.38;;;1.30;;
27365;SDS011;14837;57.148;-2.144;2022-07-01T12:34:38;1.67;;;1.08;;
27365;SDS011;14837;57.148;-2.144;2022-07-01T12:37:27;1.55;;;0.93;;
27365;SDS011;14837;57.148;-2.144;2022-07-01T12:39:52;5.75;;;1.08;;
27365;SDS011;14837;57.148;-2.144;2022-07-01T12:44:57;2.78;;;1.30;;
27365;SDS011;14837;57.148;-2.144;2022-07-01T12:47:32;2.85;;;1.40;;
27365;SDS011;14837;57.148;-2.144;2022-07-01T12:52:35;2.42;;;1.30;;
27365;SDS011;14837;57.148;-2.144;2022-07-01T12:57:40;3.47;;;1.23;;
27365;SDS011;14837;57.148;-2.144;2022-07-01T13:00:07;2.50;;;1.08;;
27365;SDS011;14837;57.148;-2.144;2022-07-01T13:02:34;3.65;;;1.20;;
27365;SDS011;14837;57.148;-2.144;2022-07-01T13:05:00;2.13;;;1.02;;
27365;SDS011;14837;57.148;-2.144;2022-07-01T13:07:27;1.70;;;1.17;;
27365;SDS011;14837;57.148;-2.144;2022-07-01T13:09:54;2.38;;;1.13;;
27365;SDS011;14837;57.148;-2.144;2022-07-01T13:12:20;3.15;;;1.35;;
27365;SDS011;14837;57.148;-2.144;2022-07-01T13:14:47;2.50;;;1.08;;
27365;SDS011;14837;57.148;-2.144;2022-07-01T13:17:13;6.05;;;1.45;;
27365;SDS011;14837;57.148;-2.144;2022-07-01T13:19:40;1.60;;;0.82;;
27365;SDS011;14837;57.148;-2.144;2022-07-01T13:22:07;3.17;;;1.20;;
27365;SDS011;14837;57.148;-2.144;2022-07-01T13:24:34;2.38;;;0.90;;
27365;SDS011;14837;57.148;-2.144;2022-07-01T13:27:00;1.88;;;0.85;;
27365;SDS011;14837;57.148;-2.144;2022-07-01T13:29:27;1.77;;;0.88;;
27365;SDS011;14837;57.148;-2.144;2022-07-01T13:31:54;2.22;;;1.05;;
27365;SDS011;14837;57.148;-2.144;2022-07-01T13:34:20;1.80;;;1.05;;
27365;SDS011;14837;57.148;-2.144;2022-07-01T13:36:47;2.55;;;1.02;;
27365;SDS011;14837;57.148;-2.144;2022-07-01T13:39:13;5.60;;;1.42;;
27365;SDS011;14837;57.148;-2.144;2022-07-01T13:41:40;4.82;;;1.25;;
27365;SDS011;14837;57.148;-2.144;2022-07-01T13:44:07;1.88;;;1.48;;
27365;SDS011;14837;57.148;-2.144;2022-07-01T13:46:33;2.60;;;1.10;;
27365;SDS011;14837;57.148;-2.144;2022-07-01T13:49:01;2.80;;;1.15;;
27365;SDS011;14837;57.148;-2.144;2022-07-01T13:51:27;1.23;;;0.98;;
27365;SDS011;14837;57.148;-2.144;2022-07-01T13:53:54;1.75;;;1.02;;
27365;SDS011;14837;57.148;-2.144;2022-07-01T13:56:21;2.00;;;1.30;;
27365;SDS011;14837;57.148;-2.144;2022-07-01T13:58:48;2.50;;;1.60;;
27365;SDS011;14837;57.148;-2.144;2022-07-01T14:01:17;2.90;;;1.35;;
27365;SDS011;14837;57.148;-2.144;2022-07-01T14:03:44;2.25;;;1.42;;
27365;SDS011;14837;57.148;-2.144;2022-07-01T14:06:11;2.65;;;1.50;;
27365;SDS011;14837;57.148;-2.144;2022-07-01T14:08:43;3.60;;;1.38;;
27365;SDS011;14837;57.148;-2.144;2022-07-01T14:11:10;2.85;;;1.25;;
27365;SDS011;14837;57.148;-2.144;2022-07-01T14:13:36;3.20;;;1.60;;
27365;SDS011;14837;57.148;-2.144;2022-07-01T14:16:03;2.70;;;1.25;;
27365;SDS011;14837;57.148;-2.144;2022-07-01T14:18:33;3.60;;;1.60;;
27365;SDS011;14837;57.148;-2.144;2022-07-01T14:21:00;2.28;;;1.20;;
27365;SDS011;14837;57.148;-2.144;2022-07-01T14:23:27;3.38;;;1.45;;
27365;SDS011;14837;57.148;-2.144;2022-07-01T14:25:57;3.10;;;1.95;;
27365;SDS011;14837;57.148;-2.144;2022-07-01T14:28:24;2.53;;;1.13;;
27365;SDS011;14837;57.148;-2.144;2022-07-01T14:30:51;2.22;;;0.90;;
27365;SDS011;14837;57.148;-2.144;2022-07-01T14:33:17;2.20;;;1.50;;
27365;SDS011;14837;57.148;-2.144;2022-07-01T14:35:44;4.50;;;2.10;;
27365;SDS011;14837;57.148;-2.144;2022-07-01T14:38:11;3.03;;;1.73;;
27365;SDS011;14837;57.148;-2.144;2022-07-01T14:40:38;2.97;;;1.17;;
27365;SDS011;14837;57.148;-2.144;2022-07-01T14:43:04;3.00;;;1.15;;
27365;SDS011;14837;57.148;-2.144;2022-07-01T14:45:31;2.33;;;1.75;;
27365;SDS011;14837;57.148;-2.144;2022-07-01T14:47:57;4.22;;;1.27;;
27365;SDS011;14837;57.148;-2.144;2022-07-01T14:50:24;2.72;;;1.52;;
27365;SDS011;14837;57.148;-2.144;2022-07-01T14:52:50;3.88;;;1.50;;
27365;SDS011;14837;57.148;-2.144;2022-07-01T14:55:17;3.05;;;0.93;;
27365;SDS011;14837;57.148;-2.144;2022-07-01T14:57:44;2.47;;;1.23;;
27365;SDS011;14837;57.148;-2.144;2022-07-01T15:00:10;3.13;;;1.60;;
27365;SDS011;14837;57.148;-2.144;2022-07-01T15:02:37;3.05;;;0.93;;
27365;SDS011;14837;57.148;-2.144;2022-07-01T15:05:04;1.50;;;1.15;;
27365;SDS011;14837;57.148;-2.144;2022-07-01T15:07:31;2.30;;;0.80;;
27365;SDS011;14837;57.148;-2.144;2022-07-01T15:09:57;3.22;;;0.80;;